createdAt,value
2023-01-25T00:02:23.815Z,6.19
2023-01-25T00:04:50.389Z,5.40
2023-01-25T00:07:16.855Z,5.17
2023-01-25T00:09:43.638Z,5.29
2023-01-25T00:12:10.171Z,5.27
2023-01-25T00:14:36.627Z,4.19
2023-01-25T00:17:03.078Z,4.92
2023-01-25T00:19:29.617Z,4.26
2023-01-25T00:21:56.726Z,4.67
2023-01-25T00:24:24.226Z,4.99
2023-01-25T00:26:50.785Z,5.02
2023-01-25T00:29:17.681Z,4.64
2023-01-25T00:31:54.463Z,4.52
2023-01-25T00:34:24.098Z,4.13
2023-01-25T00:37:12.737Z,3.95
2023-01-25T00:39:39.285Z,3.34
2023-01-25T00:42:08.765Z,4.09
2023-01-25T00:44:35.350Z,4.22
2023-01-25T00:47:02.139Z,4.39
2023-01-25T00:49:30.945Z,3.76
2023-01-25T00:51:58.370Z,3.38
2023-01-25T00:54:24.981Z,3.44
2023-01-25T00:56:56.423Z,3.63
2023-01-25T00:59:24.183Z,4.17
2023-01-25T01:01:51.596Z,4.89
2023-01-25T01:04:19.227Z,4.60
2023-01-25T01:06:46.047Z,4.88
2023-01-25T01:09:15.351Z,4.19
2023-01-25T01:11:42.138Z,3.72
2023-01-25T01:14:09.351Z,3.31
2023-01-25T01:16:36.123Z,3.96
2023-01-25T01:19:02.817Z,4.07
2023-01-25T01:21:29.572Z,3.45
2023-01-25T01:23:56.719Z,4.16
2023-01-25T01:26:23.780Z,2.91
2023-01-25T01:28:50.293Z,3.20
2023-01-25T01:31:19.110Z,3.22
2023-01-25T01:33:49.230Z,2.40
2023-01-25T01:36:16.893Z,2.75
2023-01-25T01:38:43.828Z,3.52
2023-01-25T01:41:11.119Z,2.81
2023-01-25T01:43:37.870Z,3.20
2023-01-25T01:46:09.534Z,4.13
2023-01-25T01:48:51.148Z,4.05
2023-01-25T01:51:36.432Z,3.12
2023-01-25T01:54:07.340Z,3.77
2023-01-25T01:56:49.798Z,4.08
2023-01-25T01:59:16.307Z,4.54
2023-01-25T02:01:43.572Z,4.63
2023-01-25T02:04:10.792Z,5.28
2023-01-25T02:06:48.343Z,5.31
2023-01-25T02:09:19.619Z,5.69
2023-01-25T02:11:46.880Z,5.57
2023-01-25T02:14:15.209Z,5.32
2023-01-25T02:16:41.777Z,5.61
2023-01-25T02:19:17.803Z,5.42
2023-01-25T02:21:45.997Z,5.60
2023-01-25T02:24:27.648Z,5.30
2023-01-25T02:26:54.523Z,5.54
2023-01-25T02:29:24.018Z,5.56
2023-01-25T02:31:52.668Z,5.87
2023-01-25T02:34:19.369Z,6.05
2023-01-25T02:36:45.888Z,5.83
2023-01-25T02:39:16.717Z,6.17
2023-01-25T02:41:46.723Z,5.77
2023-01-25T02:44:14.524Z,5.27
2023-01-25T02:46:42.034Z,5.72
2023-01-25T02:49:10.151Z,5.91
2023-01-25T02:51:40.192Z,5.44
2023-01-25T02:54:08.171Z,5.51
2023-01-25T02:56:34.828Z,4.63
2023-01-25T02:59:05.507Z,4.78
2023-01-25T03:01:37.179Z,3.85
2023-01-25T03:04:05.398Z,3.25
2023-01-25T03:06:32.856Z,2.97
2023-01-25T03:08:59.453Z,3.65
2023-01-25T03:11:25.938Z,3.60
2023-01-25T03:13:52.580Z,3.88
2023-01-25T03:16:19.551Z,4.28
2023-01-25T03:18:46.145Z,4.26
2023-01-25T03:21:15.319Z,4.22
2023-01-25T03:23:43.312Z,3.67
2023-01-25T03:26:11.480Z,3.54
2023-01-25T03:28:39.097Z,2.83
2023-01-25T03:31:06.403Z,3.31
2023-01-25T03:33:33.262Z,3.76
2023-01-25T03:36:00.044Z,3.02
2023-01-25T03:40:53.891Z,3.42
2023-01-25T03:43:20.809Z,3.18
2023-01-25T03:45:53.096Z,3.99
2023-01-25T03:48:20.046Z,4.11
2023-01-25T03:50:51.792Z,4.24
2023-01-25T03:53:31.304Z,4.60
2023-01-25T03:56:03.375Z,5.02
2023-01-25T03:58:30.700Z,5.28
2023-01-25T04:00:59.279Z,5.28
2023-01-25T04:03:26.242Z,5.20
2023-01-25T04:05:54.086Z,5.12
2023-01-25T04:08:21.320Z,5.39
2023-01-25T04:11:01.268Z,5.18
2023-01-25T04:13:28.200Z,5.19
2023-01-25T04:15:55.072Z,4.68
2023-01-25T04:18:21.717Z,5.12
2023-01-25T04:20:55.354Z,5.45
2023-01-25T04:23:22.580Z,5.15
2023-01-25T04:25:53.493Z,4.84
2023-01-25T04:28:19.960Z,4.86
2023-01-25T04:30:47.166Z,5.30
2023-01-25T04:33:13.843Z,5.31
2023-01-25T04:35:40.323Z,5.44
2023-01-25T04:38:07.265Z,5.29
2023-01-25T04:40:33.779Z,5.38
2023-01-25T04:43:00.363Z,4.63
2023-01-25T04:45:26.930Z,4.85
2023-01-25T04:48:02.017Z,4.52
2023-01-25T04:50:28.874Z,3.86
2023-01-25T04:52:55.408Z,3.97
2023-01-25T04:55:22.047Z,3.63
2023-01-25T04:57:51.960Z,4.25
2023-01-25T05:00:19.538Z,4.17
2023-01-25T05:02:46.597Z,4.17
2023-01-25T05:05:13.394Z,4.42
2023-01-25T05:07:39.979Z,4.42
2023-01-25T05:10:08.267Z,5.03
2023-01-25T05:12:35.025Z,4.90
2023-01-25T05:15:01.571Z,4.39
2023-01-25T05:17:28.209Z,3.85
2023-01-25T05:19:54.704Z,4.27
2023-01-25T05:22:21.402Z,3.53
2023-01-25T05:24:48.196Z,4.10
2023-01-25T05:27:17.640Z,3.98
2023-01-25T05:29:45.459Z,3.72
2023-01-25T05:32:16.238Z,3.50
2023-01-25T05:34:43.581Z,3.32
2023-01-25T05:37:12.968Z,3.82
2023-01-25T05:39:39.630Z,3.29
2023-01-25T05:42:14.147Z,3.88
2023-01-25T05:44:41.066Z,4.36
2023-01-25T05:47:12.681Z,4.42
2023-01-25T05:49:39.271Z,4.12
2023-01-25T05:52:05.841Z,3.55
2023-01-25T05:54:32.870Z,2.99
2023-01-25T05:57:00.233Z,3.67
2023-01-25T05:59:27.198Z,3.28
2023-01-25T06:01:53.867Z,2.62
2023-01-25T06:04:20.671Z,3.25
2023-01-25T06:06:47.262Z,3.07
2023-01-25T06:09:14.569Z,3.78
2023-01-25T06:11:47.954Z,4.12
2023-01-25T06:14:14.732Z,4.56
2023-01-25T06:16:41.593Z,4.81
2023-01-25T06:19:08.712Z,3.99
2023-01-25T06:21:38.792Z,4.30
2023-01-25T06:24:05.711Z,4.21
2023-01-25T06:26:32.334Z,3.87
2023-01-25T06:28:59.134Z,4.20
2023-01-25T06:31:25.843Z,3.84
2023-01-25T06:33:53.072Z,3.86
2023-01-25T06:36:20.919Z,3.94
2023-01-25T06:38:51.815Z,3.54
2023-01-25T06:41:19.485Z,3.77
2023-01-25T06:43:47.848Z,4.40
2023-01-25T06:46:14.694Z,3.87
2023-01-25T06:48:42.957Z,4.64
2023-01-25T06:51:11.691Z,4.19
2023-01-25T06:53:40.403Z,4.31
2023-01-25T06:56:12.463Z,3.76
2023-01-25T06:58:39.765Z,3.77
2023-01-25T07:01:15.893Z,4.01
2023-01-25T07:03:42.876Z,4.44
2023-01-25T07:06:11.286Z,3.66
2023-01-25T07:08:39.650Z,3.23
2023-01-25T07:11:09.607Z,3.70
2023-01-25T07:13:36.123Z,3.90
2023-01-25T07:16:05.655Z,3.95
2023-01-25T07:18:32.816Z,4.04
2023-01-25T07:21:07.950Z,4.35
2023-01-25T07:23:34.953Z,4.71
2023-01-25T07:26:01.876Z,4.26
2023-01-25T07:28:28.919Z,4.76
2023-01-25T07:30:55.562Z,4.90
2023-01-25T07:33:22.125Z,4.75
2023-01-25T07:35:51.003Z,4.17
2023-01-25T07:38:17.795Z,4.53
2023-01-25T07:40:44.628Z,3.29
2023-01-25T07:43:11.191Z,3.83
2023-01-25T07:45:38.016Z,3.93
2023-01-25T07:48:09.958Z,3.36
2023-01-25T07:50:36.551Z,4.01
2023-01-25T07:53:03.207Z,3.73
2023-01-25T07:55:29.711Z,3.19
2023-01-25T07:57:56.381Z,3.17
2023-01-25T08:00:24.152Z,2.79
2023-01-25T08:02:52.115Z,2.68
2023-01-25T08:05:19.724Z,3.00
2023-01-25T08:07:47.362Z,3.38
2023-01-25T08:10:14.396Z,3.39
2023-01-25T08:12:45.666Z,3.20
2023-01-25T08:15:15.385Z,2.95
2023-01-25T08:17:41.989Z,3.76
2023-01-25T08:20:09.898Z,3.72
2023-01-25T08:22:36.571Z,2.70
2023-01-25T08:25:04.385Z,2.48
2023-01-25T08:27:30.964Z,2.90
2023-01-25T08:29:57.527Z,3.74
2023-01-25T08:32:24.279Z,3.59
2023-01-25T08:34:51.026Z,4.26
2023-01-25T08:37:17.557Z,4.34
2023-01-25T08:39:44.157Z,4.73
2023-01-25T08:42:10.783Z,5.02
2023-01-25T08:44:37.328Z,4.99
2023-01-25T08:47:04.128Z,5.17
2023-01-25T08:49:31.724Z,4.70
2023-01-25T08:51:58.589Z,4.63
2023-01-25T08:54:25.248Z,4.29
2023-01-25T08:56:52.036Z,4.78
2023-01-25T08:59:18.595Z,5.13
2023-01-25T09:01:45.142Z,4.82
2023-01-25T09:04:11.707Z,5.45
2023-01-25T09:06:38.317Z,5.60
2023-01-25T09:09:04.932Z,5.60
2023-01-25T09:11:33.609Z,5.74
2023-01-25T09:14:00.085Z,5.71
2023-01-25T09:16:30.271Z,5.03
2023-01-25T09:18:58.799Z,3.73
2023-01-25T09:21:25.768Z,4.36
2023-01-25T09:24:09.708Z,3.89
2023-01-25T09:26:42.973Z,4.47
2023-01-25T09:29:11.629Z,4.88
2023-01-25T09:31:45.180Z,4.40
2023-01-25T09:34:13.287Z,4.46
2023-01-25T09:36:41.054Z,4.62
2023-01-25T09:39:07.704Z,4.32
2023-01-25T09:42:00.722Z,4.13
2023-01-25T09:44:42.446Z,3.71
2023-01-25T09:47:14.920Z,3.36
2023-01-25T09:50:12.992Z,3.30
2023-01-25T09:53:19.146Z,3.27
2023-01-25T09:55:51.113Z,3.42
2023-01-25T09:58:21.321Z,3.12
2023-01-25T10:00:50.994Z,3.79
2023-01-25T10:03:20.640Z,3.55
2023-01-25T10:05:49.847Z,3.27
2023-01-25T10:08:48.046Z,4.30
2023-01-25T10:11:19.443Z,4.10
2023-01-25T10:13:46.078Z,4.02
2023-01-25T10:16:37.492Z,4.42
2023-01-25T10:19:24.434Z,3.99
2023-01-25T10:21:58.622Z,4.54
2023-01-25T10:25:13.732Z,5.11
2023-01-25T10:27:50.744Z,5.15
2023-01-25T10:30:27.717Z,5.25
2023-01-25T10:33:11.927Z,5.18
2023-01-25T10:35:43.116Z,4.41
2023-01-25T10:38:21.825Z,5.28
2023-01-25T10:40:53.563Z,4.79
2023-01-25T10:43:23.379Z,4.10
2023-01-25T10:45:50.667Z,4.10
2023-01-25T10:48:21.864Z,4.19
2023-01-25T10:50:51.704Z,3.82
2023-01-25T10:53:37.253Z,4.23
2023-01-25T10:56:13.033Z,4.18
2023-01-25T10:58:42.385Z,4.06
2023-01-25T11:01:30.241Z,4.75
2023-01-25T11:03:57.633Z,4.88
2023-01-25T11:06:47.574Z,4.95
2023-01-25T11:09:29.553Z,4.85
2023-01-25T11:11:57.336Z,5.43
2023-01-25T11:14:27.222Z,5.25
2023-01-25T11:16:55.887Z,5.20
2023-01-25T11:19:39.880Z,4.82
2023-01-25T11:22:18.968Z,5.54
2023-01-25T11:24:46.119Z,5.31
2023-01-25T11:27:24.620Z,4.96
2023-01-25T11:30:12.843Z,4.54
2023-01-25T11:32:40.504Z,4.62
2023-01-25T11:35:25.556Z,4.17
2023-01-25T11:38:14.186Z,4.06
2023-01-25T11:41:18.391Z,4.29
2023-01-25T11:43:56.391Z,4.36
2023-01-25T11:46:29.331Z,4.14
2023-01-25T11:49:18.973Z,2.72
2023-01-25T11:52:13.537Z,2.97
2023-01-25T11:55:01.979Z,2.76
2023-01-25T11:57:39.860Z,3.38
2023-01-25T12:00:28.914Z,3.62
2023-01-25T12:03:03.629Z,4.00
2023-01-25T12:06:04.276Z,4.55
2023-01-25T12:09:03.363Z,3.78
2023-01-25T12:12:10.013Z,4.24
2023-01-25T12:14:48.723Z,4.29
2023-01-25T12:18:09.172Z,4.93
2023-01-25T12:21:22.926Z,3.43
2023-01-25T12:24:18.171Z,3.44
2023-01-25T12:27:09.738Z,3.59
2023-01-25T12:29:41.116Z,2.28
2023-01-25T12:32:51.768Z,3.07
2023-01-25T12:35:23.756Z,3.23
2023-01-25T12:37:55.617Z,3.62
2023-01-25T12:40:40.868Z,4.35
2023-01-25T12:43:24.743Z,4.48
2023-01-25T12:45:51.729Z,4.60
2023-01-25T12:48:28.903Z,4.64
2023-01-25T12:50:59.923Z,4.60
2023-01-25T12:53:41.850Z,4.89
2023-01-25T12:56:11.830Z,4.30
2023-01-25T12:58:44.189Z,4.18
2023-01-25T13:01:27.593Z,3.24
2023-01-25T13:04:23.587Z,3.07
2023-01-25T13:07:15.502Z,3.57
2023-01-25T13:09:59.750Z,2.83
2023-01-25T13:12:26.516Z,3.20
2023-01-25T13:14:53.405Z,3.01
2023-01-25T13:17:41.185Z,3.51
2023-01-25T13:20:38.805Z,3.32
2023-01-25T13:23:13.072Z,3.20
2023-01-25T13:25:39.536Z,3.23
2023-01-25T13:28:40.703Z,3.95
2023-01-25T13:31:07.291Z,4.05
2023-01-25T13:33:35.783Z,4.19
2023-01-25T13:36:39.899Z,4.56
2023-01-25T13:39:32.983Z,3.96
2023-01-25T13:41:59.898Z,3.72
2023-01-25T13:44:28.800Z,3.50
2023-01-25T13:47:03.748Z,3.47
2023-01-25T13:49:41.512Z,3.10
2023-01-25T13:52:11.793Z,3.27
2023-01-25T13:54:49.674Z,3.06
2023-01-25T13:57:22.022Z,3.36
2023-01-25T13:59:50.794Z,3.69
2023-01-25T14:02:20.828Z,3.75
2023-01-25T14:04:48.768Z,3.58
2023-01-25T14:07:20.511Z,3.78
2023-01-25T14:09:48.474Z,3.95
2023-01-25T14:12:33.963Z,3.86
2023-01-25T14:15:23.103Z,3.32
2023-01-25T14:18:15.189Z,3.10
2023-01-25T14:20:42.970Z,2.68
2023-01-25T14:23:30.929Z,3.34
2023-01-25T14:25:59.239Z,2.59
2023-01-25T14:28:26.991Z,2.58
2023-01-25T14:30:55.808Z,2.99
2023-01-25T14:33:27.257Z,3.70
2023-01-25T14:36:00.055Z,3.59
2023-01-25T14:38:33.080Z,3.24
2023-01-25T14:41:18.338Z,3.13
2023-01-25T14:43:53.776Z,3.76
2023-01-25T14:46:28.570Z,3.99
2023-01-25T14:49:26.851Z,4.35
2023-01-25T14:52:05.853Z,4.51
2023-01-25T14:54:35.072Z,3.75
2023-01-25T14:57:05.228Z,4.06
2023-01-25T14:59:36.259Z,3.29
2023-01-25T15:02:15.063Z,3.23
2023-01-25T15:05:11.100Z,2.83
2023-01-25T15:07:49.030Z,2.73
2023-01-25T15:10:28.843Z,3.68
2023-01-25T15:13:12.832Z,3.79
2023-01-25T15:16:10.081Z,3.61
2023-01-25T15:18:53.964Z,3.02
2023-01-25T15:21:30.063Z,2.96
2023-01-25T15:23:58.595Z,3.07
2023-01-25T15:26:29.796Z,3.41
2023-01-25T15:29:02.308Z,3.27
2023-01-25T15:31:31.580Z,3.71
2023-01-25T15:33:58.924Z,3.35
2023-01-25T15:36:26.020Z,3.35
2023-01-25T15:38:52.566Z,3.45
2023-01-25T15:41:19.208Z,3.13
2023-01-25T15:43:46.685Z,3.21
2023-01-25T15:46:19.460Z,4.16
2023-01-25T15:48:46.741Z,4.02
2023-01-25T15:51:13.392Z,3.21
2023-01-25T15:53:40.222Z,3.79
2023-01-25T15:56:12.562Z,3.32
2023-01-25T15:58:42.201Z,2.83
2023-01-25T16:01:09.134Z,2.72
2023-01-25T16:03:35.999Z,3.08
2023-01-25T16:06:20.136Z,2.92
2023-01-25T16:08:46.728Z,1.95
2023-01-25T16:11:13.399Z,3.13
2023-01-25T16:13:41.478Z,2.67
2023-01-25T16:16:17.465Z,2.87
2023-01-25T16:18:44.200Z,2.58
2023-01-25T16:21:12.537Z,3.60
2023-01-25T16:23:39.559Z,4.12
2023-01-25T16:26:16.457Z,3.64
2023-01-25T16:28:43.019Z,4.34
2023-01-25T16:31:30.819Z,4.45
2023-01-25T16:33:58.422Z,4.18
2023-01-25T16:36:25.169Z,4.06
2023-01-25T16:38:51.752Z,4.60
2023-01-25T16:41:18.796Z,4.43
2023-01-25T16:43:47.217Z,4.26
2023-01-25T16:46:22.339Z,4.63
2023-01-25T16:48:51.143Z,4.64
2023-01-25T16:51:20.943Z,4.51
2023-01-25T16:53:48.649Z,4.64
2023-01-25T16:56:19.576Z,3.79
2023-01-25T16:58:46.723Z,3.54
2023-01-25T17:01:14.391Z,4.35
2023-01-25T17:03:41.185Z,4.66
2023-01-25T17:06:08.114Z,4.21
2023-01-25T17:08:34.719Z,4.50
2023-01-25T17:11:05.565Z,4.19
2023-01-25T17:13:32.319Z,4.09
2023-01-25T17:16:00.859Z,3.37
2023-01-25T17:18:28.058Z,3.58
2023-01-25T17:20:58.388Z,3.67
2023-01-25T17:23:25.204Z,3.55
2023-01-25T17:25:51.879Z,3.96
2023-01-25T17:28:18.353Z,4.27
2023-01-25T17:30:44.952Z,4.09
2023-01-25T17:33:12.801Z,4.38
2023-01-25T17:35:39.385Z,4.65
2023-01-25T17:38:06.020Z,4.49
2023-01-25T17:40:34.878Z,4.52
2023-01-25T17:43:01.818Z,3.87
2023-01-25T17:45:28.358Z,4.81
2023-01-25T17:47:54.879Z,4.60
2023-01-25T17:50:21.600Z,4.18
2023-01-25T17:52:48.483Z,3.93
2023-01-25T17:55:15.060Z,3.77
2023-01-25T17:57:41.656Z,3.86
2023-01-25T18:00:11.851Z,4.40
2023-01-25T18:02:38.807Z,4.36
2023-01-25T18:05:08.095Z,4.05
2023-01-25T18:07:34.606Z,4.26
2023-01-25T18:10:01.117Z,4.15
2023-01-25T18:12:28.008Z,3.93
2023-01-25T18:14:54.509Z,4.02
2023-01-25T18:17:20.999Z,4.39
2023-01-25T18:19:48.965Z,4.43
2023-01-25T18:22:16.186Z,4.11
2023-01-25T18:24:44.177Z,3.86
2023-01-25T18:27:24.564Z,3.84
2023-01-25T18:29:59.683Z,4.04
2023-01-25T18:32:26.899Z,4.13
2023-01-25T18:34:53.613Z,3.68
2023-01-25T18:37:25.624Z,3.23
2023-01-25T18:39:54.951Z,3.60
2023-01-25T18:42:23.954Z,4.04
2023-01-25T18:44:50.660Z,3.94
2023-01-25T18:47:18.933Z,3.79
2023-01-25T18:49:50.177Z,3.91
2023-01-25T18:52:18.303Z,4.30
2023-01-25T18:54:45.239Z,4.30
2023-01-25T18:57:13.293Z,3.91
2023-01-25T18:59:40.302Z,4.22
2023-01-25T19:02:07.872Z,3.71
2023-01-25T19:04:34.432Z,2.97
2023-01-25T19:07:01.697Z,2.79
2023-01-25T19:09:28.673Z,3.77
2023-01-25T19:11:55.522Z,3.08
2023-01-25T19:14:22.872Z,2.51
2023-01-25T19:16:49.828Z,2.61
2023-01-25T19:19:16.658Z,2.85
2023-01-25T19:21:43.216Z,2.95
2023-01-25T19:24:15.276Z,2.74
2023-01-25T19:26:42.028Z,1.95
2023-01-25T19:29:09.279Z,1.85
2023-01-25T19:31:37.300Z,2.28
2023-01-25T19:34:06.053Z,2.94
2023-01-25T19:36:36.084Z,3.49
2023-01-25T19:39:04.076Z,2.16
2023-01-25T19:41:31.369Z,3.07
2023-01-25T19:44:00.148Z,2.91
2023-01-25T19:46:30.127Z,2.94
2023-01-25T19:48:58.268Z,2.69
2023-01-25T19:51:33.002Z,3.59
2023-01-25T19:54:00.919Z,3.52
2023-01-25T19:56:29.285Z,3.57
2023-01-25T19:58:55.958Z,3.35
2023-01-25T20:01:24.426Z,3.29
2023-01-25T20:03:51.761Z,3.42
2023-01-25T20:06:19.912Z,4.37
2023-01-25T20:08:47.504Z,3.90
2023-01-25T20:11:15.109Z,4.16
2023-01-25T20:13:42.689Z,3.20
2023-01-25T20:16:11.051Z,3.62
2023-01-25T20:18:37.879Z,3.88
2023-01-25T20:21:06.724Z,4.05
2023-01-25T20:23:38.592Z,4.37
2023-01-25T20:26:15.528Z,4.03
2023-01-25T20:28:43.075Z,4.30
2023-01-25T20:31:26.221Z,4.05
2023-01-25T20:33:58.222Z,4.33
2023-01-25T20:36:25.667Z,3.39
2023-01-25T20:38:52.395Z,3.55
2023-01-25T20:41:19.192Z,3.68
2023-01-25T20:43:53.464Z,3.30
2023-01-25T20:46:21.745Z,3.66
2023-01-25T20:48:49.054Z,3.73
2023-01-25T20:51:21.468Z,3.65
2023-01-25T20:53:49.310Z,4.23
2023-01-25T20:56:16.949Z,3.96
2023-01-25T20:58:50.202Z,3.90
2023-01-25T21:01:22.346Z,3.62
2023-01-25T21:03:49.558Z,3.26
2023-01-25T21:06:17.040Z,4.03
2023-01-25T21:08:43.693Z,4.46
2023-01-25T21:11:11.519Z,4.05
2023-01-25T21:13:38.038Z,4.23
2023-01-25T21:16:06.118Z,3.60
2023-01-25T21:18:33.853Z,3.62
2023-01-25T21:21:07.465Z,3.70
2023-01-25T21:23:34.818Z,3.25
2023-01-25T21:26:02.435Z,4.00
2023-01-25T21:28:29.540Z,4.04
2023-01-25T21:30:56.431Z,4.13
2023-01-25T21:33:23.571Z,4.56
2023-01-25T21:35:54.281Z,4.25
2023-01-25T21:38:20.960Z,4.01
2023-01-25T21:40:47.805Z,3.96
2023-01-25T21:43:16.298Z,4.26
2023-01-25T21:46:01.484Z,4.61
2023-01-25T21:48:46.851Z,4.68
2023-01-25T21:51:32.390Z,4.43
2023-01-25T21:53:59.257Z,4.44
2023-01-25T21:56:25.798Z,3.72
2023-01-25T21:58:52.497Z,4.15
2023-01-25T22:01:20.119Z,3.46
2023-01-25T22:03:50.481Z,2.46
2023-01-25T22:06:18.358Z,3.33
2023-01-25T22:08:45.153Z,2.92
2023-01-25T22:11:12.082Z,3.44
2023-01-25T22:13:38.993Z,3.89
2023-01-25T22:16:07.205Z,3.95
2023-01-25T22:18:35.965Z,3.65
2023-01-25T22:21:05.256Z,3.24
2023-01-25T22:23:32.986Z,3.90
2023-01-25T22:26:08.037Z,4.24
2023-01-25T22:28:46.546Z,4.03
2023-01-25T22:31:22.290Z,3.96
2023-01-25T22:33:49.323Z,3.62
2023-01-25T22:36:17.780Z,3.18
2023-01-25T22:38:44.370Z,3.19
2023-01-25T22:41:16.637Z,3.72
2023-01-25T22:43:43.810Z,3.48
2023-01-25T22:46:12.303Z,3.96
2023-01-25T22:48:39.107Z,3.07
2023-01-25T22:51:08.070Z,3.89
2023-01-25T22:53:35.114Z,4.17
2023-01-25T22:56:03.380Z,3.83
2023-01-25T22:58:30.522Z,4.05
2023-01-25T23:00:57.489Z,3.88
2023-01-25T23:03:24.319Z,3.45
2023-01-25T23:06:05.475Z,4.17
2023-01-25T23:08:33.867Z,3.70
2023-01-25T23:11:11.608Z,2.56
2023-01-25T23:13:39.848Z,2.20
2023-01-25T23:16:08.250Z,2.54
2023-01-25T23:18:49.905Z,2.50
2023-01-25T23:21:18.084Z,2.37
2023-01-25T23:23:44.754Z,2.86
2023-01-25T23:26:11.527Z,2.86
2023-01-25T23:28:38.468Z,2.32
2023-01-25T23:31:21.641Z,2.08
2023-01-25T23:33:56.613Z,2.40
2023-01-25T23:36:27.896Z,1.79
2023-01-25T23:38:55.007Z,1.56
2023-01-25T23:41:23.527Z,0.98
2023-01-25T23:43:50.336Z,1.60
2023-01-25T23:46:17.155Z,2.01
2023-01-25T23:48:44.248Z,2.45
2023-01-25T23:51:11.853Z,3.17
2023-01-25T23:53:39.111Z,3.38
2023-01-25T23:56:15.003Z,3.24
2023-01-25T23:58:41.701Z,2.68
